Time;durP1;ratioP1;P1;durP2;ratioP2;P2;SDS_P1;SDS_P2;PMS_P1;PMS_P2;Temp;Humidity;BMP_temperature;BMP_pressure;BME280_temperature;BME280_humidity;BME280_pressure;Samples;Min_cycle;Max_cycle;Signal;HPM_P1;HPM_P2
2023/10/13 00:00:29;;;;;;;18.17;12.60;;;;;;;;;;5029345;28;20394;-59
2023/10/13 00:02:56;;;;;;;19.13;13.30;;;;;;;;;;5030333;28;20801;-59
2023/10/13 00:05:21;;;;;;;18.27;13.75;;;;;;;;;;5029514;28;20834;-59
2023/10/13 00:07:46;;;;;;;17.53;12.73;;;;;;;;;;5029629;28;20419;-59
2023/10/13 00:10:12;;;;;;;20.07;14.00;;;;;;;;;;5026936;28;20465;-59
2023/10/13 00:12:37;;;;;;;18.37;12.73;;;;;;;;;;5010606;28;20887;-59
2023/10/13 00:15:06;;;;;;;16.88;12.27;;;;;;;;;;5008997;28;20412;-59
2023/10/13 00:17:32;;;;;;;17.52;12.65;;;;;;;;;;5014812;28;20435;-59
2023/10/13 00:20:00;;;;;;;16.15;11.35;;;;;;;;;;5029998;28;20406;-59
2023/10/13 00:22:27;;;;;;;15.57;11.38;;;;;;;;;;5028882;28;21054;-59
2023/10/13 00:24:58;;;;;;;15.70;11.23;;;;;;;;;;5017722;28;20413;-59
2023/10/13 00:27:30;;;;;;;13.02;9.80;;;;;;;;;;5009170;28;20401;-59
2023/10/13 00:30:17;;;;;;;14.65;10.35;;;;;;;;;;5010148;28;20937;-59
2023/10/13 00:32:43;;;;;;;13.75;10.23;;;;;;;;;;5009874;28;20396;-59
2023/10/13 00:35:12;;;;;;;14.17;10.33;;;;;;;;;;5008670;28;20427;-59
2023/10/13 00:37:44;;;;;;;16.35;10.45;;;;;;;;;;5010157;28;20471;-59
2023/10/13 00:40:31;;;;;;;14.30;10.07;;;;;;;;;;5018157;28;20403;-59
2023/10/13 00:43:28;;;;;;;14.95;10.63;;;;;;;;;;5025177;28;20395;-59
2023/10/13 00:45:41;;;;;;;11.90;9.23;;;;;;;;;;5024931;28;20451;-59
2023/10/13 00:48:10;;;;;;;17.10;11.13;;;;;;;;;;5008516;28;20820;-58
2023/10/13 00:50:36;;;;;;;14.68;9.88;;;;;;;;;;5019563;28;20929;-59
2023/10/13 00:53:02;;;;;;;15.40;9.68;;;;;;;;;;5009656;28;20409;-60
2023/10/13 00:55:29;;;;;;;13.37;9.93;;;;;;;;;;5008978;28;20403;-59
2023/10/13 00:57:57;;;;;;;14.40;9.50;;;;;;;;;;5010201;28;20400;-59
2023/10/13 01:00:28;;;;;;;12.73;9.75;;;;;;;;;;5008254;28;20408;-59
2023/10/13 01:03:06;;;;;;;13.38;9.00;;;;;;;;;;5009270;28;20443;-59
2023/10/13 01:05:32;;;;;;;14.45;9.30;;;;;;;;;;5009585;28;20865;-59
2023/10/13 01:08:01;;;;;;;14.45;9.10;;;;;;;;;;5011653;28;20417;-59
2023/10/13 01:10:27;;;;;;;14.13;9.60;;;;;;;;;;5011806;28;20427;-59
2023/10/13 01:12:52;;;;;;;13.02;8.95;;;;;;;;;;5014390;28;20414;-59
2023/10/13 01:15:20;;;;;;;14.13;9.30;;;;;;;;;;5020466;28;20422;-59
2023/10/13 01:17:46;;;;;;;13.68;9.40;;;;;;;;;;5013972;28;20427;-59
2023/10/13 01:20:19;;;;;;;12.53;9.07;;;;;;;;;;5014345;28;20408;-59
2023/10/13 01:22:45;;;;;;;13.13;9.35;;;;;;;;;;5022945;28;20413;-59
2023/10/13 01:25:12;;;;;;;12.15;8.95;;;;;;;;;;5023446;28;20523;-59
2023/10/13 01:27:38;;;;;;;13.48;9.32;;;;;;;;;;5017423;28;20500;-59
2023/10/13 01:30:11;;;;;;;14.40;9.00;;;;;;;;;;5016876;28;20986;-59
2023/10/13 01:32:40;;;;;;;12.55;9.00;;;;;;;;;;5015850;28;20596;-59
2023/10/13 01:35:06;;;;;;;14.68;9.50;;;;;;;;;;5016150;28;20401;-59
2023/10/13 01:37:32;;;;;;;15.38;9.38;;;;;;;;;;5017515;28;20443;-59
2023/10/13 01:39:57;;;;;;;13.47;8.90;;;;;;;;;;5023907;28;20803;-59
2023/10/13 01:42:24;;;;;;;14.37;9.37;;;;;;;;;;5015780;28;20454;-59
2023/10/13 01:44:49;;;;;;;14.63;9.05;;;;;;;;;;5020487;28;20414;-59
2023/10/13 01:47:16;;;;;;;12.50;8.70;;;;;;;;;;5020908;28;20472;-59
2023/10/13 01:49:43;;;;;;;11.93;8.48;;;;;;;;;;5023592;28;20476;-59
2023/10/13 01:52:11;;;;;;;13.23;8.23;;;;;;;;;;5021709;28;20407;-59
2023/10/13 01:54:40;;;;;;;13.57;7.60;;;;;;;;;;5018094;28;20407;-59
2023/10/13 01:57:06;;;;;;;14.23;8.43;;;;;;;;;;5003826;28;20409;-59
2023/10/13 01:59:31;;;;;;;12.77;8.53;;;;;;;;;;4999875;28;20844;-58
2023/10/13 02:02:00;;;;;;;13.60;8.27;;;;;;;;;;4995325;28;20412;-58
2023/10/13 02:04:25;;;;;;;12.00;7.65;;;;;;;;;;5004872;28;20935;-58
2023/10/13 02:06:52;;;;;;;12.97;7.80;;;;;;;;;;5017161;28;20411;-58
2023/10/13 02:09:25;;;;;;;13.10;8.03;;;;;;;;;;5021829;28;20438;-59
2023/10/13 02:11:54;;;;;;;14.23;8.10;;;;;;;;;;5021517;28;20407;-59
2023/10/13 02:14:22;;;;;;;11.00;7.13;;;;;;;;;;5020867;28;20391;-59
2023/10/13 02:16:49;;;;;;;11.80;7.15;;;;;;;;;;5022033;28;20426;-59
2023/10/13 02:19:16;;;;;;;12.95;7.72;;;;;;;;;;5003588;28;20891;-59
2023/10/13 02:21:44;;;;;;;10.90;6.50;;;;;;;;;;5000069;28;20409;-58
2023/10/13 02:24:13;;;;;;;11.20;7.00;;;;;;;;;;5007885;28;20906;-59
2023/10/13 02:26:39;;;;;;;12.95;6.68;;;;;;;;;;5014200;28;20409;-59
2023/10/13 02:29:07;;;;;;;11.45;6.88;;;;;;;;;;5013527;28;21020;-59
2023/10/13 02:31:34;;;;;;;12.05;7.05;;;;;;;;;;5021771;28;20977;-58
2023/10/13 02:34:01;;;;;;;8.73;6.30;;;;;;;;;;5020634;28;20834;-58
2023/10/13 02:36:36;;;;;;;12.10;7.10;;;;;;;;;;5021908;28;20993;-58
2023/10/13 02:39:07;;;;;;;12.97;6.93;;;;;;;;;;5021174;28;20411;-59
2023/10/13 02:41:32;;;;;;;11.02;6.43;;;;;;;;;;5021106;28;20452;-59
2023/10/13 02:43:57;;;;;;;10.80;6.40;;;;;;;;;;5020516;28;20411;-59
2023/10/13 02:46:23;;;;;;;10.03;6.27;;;;;;;;;;5013649;28;20433;-59
2023/10/13 02:48:53;;;;;;;12.13;6.88;;;;;;;;;;5012413;28;20410;-58
2023/10/13 02:51:18;;;;;;;9.25;5.95;;;;;;;;;;5003857;28;21019;-59
2023/10/13 02:53:49;;;;;;;8.98;5.55;;;;;;;;;;5019654;28;20479;-59
2023/10/13 02:56:20;;;;;;;10.00;5.97;;;;;;;;;;5019864;28;20449;-59
2023/10/13 02:58:47;;;;;;;10.52;5.68;;;;;;;;;;5021532;28;20422;-59
2023/10/13 03:01:20;;;;;;;10.57;5.88;;;;;;;;;;5020848;28;20486;-58
2023/10/13 03:03:51;;;;;;;10.45;6.10;;;;;;;;;;5014698;28;20432;-59
2023/10/13 03:06:16;;;;;;;12.07;5.88;;;;;;;;;;5020213;28;20442;-59
2023/10/13 03:08:43;;;;;;;11.87;5.70;;;;;;;;;;5013551;28;20689;-59
2023/10/13 03:11:09;;;;;;;10.03;5.43;;;;;;;;;;5012304;28;20654;-59
2023/10/13 03:13:35;;;;;;;10.93;5.78;;;;;;;;;;5013194;28;20460;-59
2023/10/13 03:16:00;;;;;;;9.23;5.43;;;;;;;;;;5020213;28;20423;-59
2023/10/13 03:18:26;;;;;;;10.27;5.80;;;;;;;;;;5009608;28;20400;-59
2023/10/13 03:20:56;;;;;;;11.80;5.63;;;;;;;;;;5020664;28;20796;-59
2023/10/13 03:23:22;;;;;;;12.10;5.72;;;;;;;;;;5019595;28;20391;-59
2023/10/13 03:25:49;;;;;;;10.37;5.33;;;;;;;;;;5001629;28;20490;-59
2023/10/13 03:28:17;;;;;;;11.07;5.05;;;;;;;;;;5000591;28;20412;-59
2023/10/13 03:30:42;;;;;;;9.88;5.50;;;;;;;;;;5000447;28;20471;-59
2023/10/13 03:33:25;;;;;;;8.70;5.22;;;;;;;;;;4994033;28;20483;-59
2023/10/13 03:35:54;;;;;;;12.07;4.73;;;;;;;;;;4995042;28;20409;-59
2023/10/13 03:38:19;;;;;;;10.38;4.90;;;;;;;;;;5004717;28;20455;-59
2023/10/13 03:40:48;;;;;;;10.30;5.33;;;;;;;;;;5001677;28;20826;-59
2023/10/13 03:43:13;;;;;;;9.07;4.53;;;;;;;;;;5002180;28;20401;-59
2023/10/13 03:45:39;;;;;;;8.97;4.70;;;;;;;;;;5001714;28;20810;-59
2023/10/13 03:48:09;;;;;;;10.63;4.90;;;;;;;;;;5001729;28;20926;-59
2023/10/13 03:50:36;;;;;;;9.43;5.30;;;;;;;;;;5002863;28;20397;-59
2023/10/13 03:53:01;;;;;;;11.02;5.10;;;;;;;;;;4996112;28;20799;-59
2023/10/13 03:55:29;;;;;;;9.23;5.63;;;;;;;;;;4994378;28;20909;-59
2023/10/13 03:57:54;;;;;;;10.88;5.72;;;;;;;;;;4994664;28;20503;-59
2023/10/13 04:00:24;;;;;;;9.70;5.47;;;;;;;;;;4999173;28;20484;-59
2023/10/13 04:05:38;;;;;;;12.40;7.05;;;;;;;;;;5008144;28;20403;-59
2023/10/13 04:16:14;;;;;;;17.42;9.02;;;;;;;;;;5001614;28;20803;-59
2023/10/13 04:32:14;;;;;;;12.50;7.50;;;;;;;;;;5001186;28;20471;-59
2023/10/13 04:34:45;;;;;;;10.73;7.10;;;;;;;;;;5001611;28;20480;-59
2023/10/13 04:37:28;;;;;;;11.00;7.00;;;;;;;;;;5000929;28;20795;-59
2023/10/13 04:39:59;;;;;;;12.35;7.28;;;;;;;;;;4994223;28;20412;-59
2023/10/13 04:47:57;;;;;;;12.77;7.85;;;;;;;;;;5002460;28;20436;-59
2023/10/13 04:50:30;;;;;;;13.50;8.20;;;;;;;;;;5004118;28;20404;-59
2023/10/13 04:53:02;;;;;;;12.07;7.50;;;;;;;;;;5002042;28;20908;-59
2023/10/13 04:55:48;;;;;;;13.30;7.75;;;;;;;;;;5000436;28;20462;-59
2023/10/13 04:58:27;;;;;;;14.27;8.20;;;;;;;;;;5004668;28;20409;-60
2023/10/13 05:01:23;;;;;;;15.45;9.20;;;;;;;;;;5005427;28;20413;-59
2023/10/13 05:03:53;;;;;;;19.02;11.20;;;;;;;;;;4996354;28;20463;-59
2023/10/13 05:44:33;;;;;;;11.82;7.22;;;;;;;;;;5003166;28;20516;-59
2023/10/13 05:47:46;;;;;;;9.85;6.68;;;;;;;;;;4997306;28;20404;-59
2023/10/13 06:30:58;;;;;;;9.35;5.00;;;;;;;;;;5004341;28;20419;-58
2023/10/13 06:33:28;;;;;;;7.77;5.30;;;;;;;;;;5017011;28;20401;-58
2023/10/13 06:35:56;;;;;;;8.25;4.90;;;;;;;;;;5019513;28;20397;-58
2023/10/13 06:38:21;;;;;;;8.75;4.90;;;;;;;;;;5016121;28;20399;-58
2023/10/13 06:40:48;;;;;;;9.73;4.97;;;;;;;;;;5014939;28;20407;-58
2023/10/13 06:43:17;;;;;;;10.23;4.88;;;;;;;;;;5022992;28;20916;-58
2023/10/13 06:45:43;;;;;;;7.10;4.43;;;;;;;;;;5020550;28;20411;-58
2023/10/13 06:48:11;;;;;;;7.15;4.40;;;;;;;;;;5017247;28;20907;-58
2023/10/13 06:50:41;;;;;;;9.15;4.70;;;;;;;;;;5021757;28;20500;-58
2023/10/13 06:53:06;;;;;;;8.97;4.57;;;;;;;;;;5014470;28;20408;-58
2023/10/13 06:55:35;;;;;;;8.30;4.20;;;;;;;;;;5015976;28;20400;-58
2023/10/13 06:58:00;;;;;;;6.30;3.92;;;;;;;;;;5015236;28;20406;-58
2023/10/13 07:00:29;;;;;;;9.00;4.50;;;;;;;;;;5022527;28;20477;-58
2023/10/13 07:03:05;;;;;;;7.55;3.80;;;;;;;;;;5014589;28;20405;-58
2023/10/13 07:05:34;;;;;;;7.82;4.25;;;;;;;;;;5015584;28;20802;-58
2023/10/13 07:07:59;;;;;;;10.10;3.80;;;;;;;;;;5014701;28;20406;-58
2023/10/13 07:10:29;;;;;;;8.47;4.20;;;;;;;;;;5021506;28;20395;-58
2023/10/13 07:12:59;;;;;;;8.82;3.83;;;;;;;;;;5015920;28;20728;-58
2023/10/13 07:15:27;;;;;;;7.70;3.90;;;;;;;;;;5013593;28;20671;-58
2023/10/13 07:17:59;;;;;;;7.97;3.80;;;;;;;;;;5015006;28;20474;-58
2023/10/13 07:23:03;;;;;;;8.30;4.40;;;;;;;;;;5015181;28;20412;-58
2023/10/13 07:25:32;;;;;;;9.00;3.97;;;;;;;;;;5018972;28;20420;-58
2023/10/13 07:27:58;;;;;;;8.88;4.18;;;;;;;;;;5014486;28;20934;-58
2023/10/13 07:30:26;;;;;;;6.57;3.77;;;;;;;;;;5015086;28;20405;-58
2023/10/13 07:32:52;;;;;;;10.35;4.50;;;;;;;;;;5014864;28;20898;-58
2023/10/13 07:35:19;;;;;;;10.45;4.40;;;;;;;;;;5019516;28;20405;-58
2023/10/13 07:37:48;;;;;;;11.10;4.45;;;;;;;;;;5021419;28;20399;-58
2023/10/13 07:42:51;;;;;;;9.93;4.30;;;;;;;;;;5014388;28;20426;-58
2023/10/13 07:45:18;;;;;;;10.40;4.33;;;;;;;;;;5020789;28;20964;-58
2023/10/13 07:47:44;;;;;;;11.73;4.30;;;;;;;;;;5014406;28;20416;-58
2023/10/13 07:50:10;;;;;;;11.18;4.65;;;;;;;;;;5015001;28;20523;-58
2023/10/13 07:52:36;;;;;;;10.60;4.50;;;;;;;;;;5021290;28;20420;-58
2023/10/13 07:57:33;;;;;;;9.07;4.43;;;;;;;;;;5014760;28;20434;-58
2023/10/13 08:00:08;;;;;;;10.53;4.17;;;;;;;;;;5020848;28;20436;-58
2023/10/13 08:02:48;;;;;;;9.98;4.40;;;;;;;;;;5012875;28;20411;-59
2023/10/13 08:05:25;;;;;;;10.48;4.43;;;;;;;;;;5019563;28;21037;-58
2023/10/13 08:07:52;;;;;;;10.98;4.65;;;;;;;;;;5015426;28;20398;-58
2023/10/13 08:10:18;;;;;;;11.32;4.88;;;;;;;;;;5013176;28;21122;-58
2023/10/13 08:12:44;;;;;;;12.73;4.60;;;;;;;;;;5019577;28;20440;-58
2023/10/13 08:15:21;;;;;;;11.75;4.28;;;;;;;;;;5013842;28;20424;-58
2023/10/13 08:17:46;;;;;;;12.27;4.78;;;;;;;;;;5019695;28;20439;-58
2023/10/13 08:20:12;;;;;;;11.83;4.47;;;;;;;;;;5007995;28;20915;-58
2023/10/13 08:22:38;;;;;;;12.30;4.47;;;;;;;;;;5010385;28;20923;-58
2023/10/13 08:25:20;;;;;;;16.73;4.47;;;;;;;;;;5023186;28;20514;-58
2023/10/13 08:30:30;;;;;;;10.77;4.25;;;;;;;;;;5017501;28;20424;-58
2023/10/13 08:32:58;;;;;;;13.63;4.15;;;;;;;;;;5015294;28;20439;-58
2023/10/13 08:50:52;;;;;;;12.20;4.38;;;;;;;;;;5025540;28;20405;-58
2023/10/13 08:53:44;;;;;;;17.45;5.13;;;;;;;;;;5021962;28;20904;-58
2023/10/13 08:59:22;;;;;;;14.07;4.63;;;;;;;;;;5023893;28;20821;-58
2023/10/13 09:06:47;;;;;;;13.65;4.95;;;;;;;;;;5019917;28;20481;-58
2023/10/13 09:09:26;;;;;;;14.23;4.95;;;;;;;;;;5019063;28;20895;-58
2023/10/13 09:12:04;;;;;;;13.52;4.50;;;;;;;;;;5021372;28;20824;-58
2023/10/13 09:14:37;;;;;;;14.60;4.87;;;;;;;;;;5019760;28;20472;-57
2023/10/13 09:17:11;;;;;;;14.75;4.90;;;;;;;;;;5016774;28;20423;-58
2023/10/13 09:19:47;;;;;;;13.27;4.20;;;;;;;;;;5026059;28;20406;-58
2023/10/13 09:22:24;;;;;;;13.82;4.70;;;;;;;;;;5020551;28;20507;-58
2023/10/13 09:24:51;;;;;;;13.67;4.37;;;;;;;;;;5019149;28;20447;-58
2023/10/13 09:27:16;;;;;;;13.40;4.40;;;;;;;;;;5016888;28;20774;-58
2023/10/13 09:29:44;;;;;;;12.97;4.40;;;;;;;;;;5019843;28;20408;-58
2023/10/13 09:32:12;;;;;;;15.35;4.70;;;;;;;;;;5019478;28;20473;-58
2023/10/13 09:34:40;;;;;;;14.93;4.78;;;;;;;;;;5027664;28;20486;-58
2023/10/13 09:37:06;;;;;;;14.35;4.72;;;;;;;;;;5026421;28;20403;-58
2023/10/13 09:42:10;;;;;;;12.33;4.40;;;;;;;;;;5021541;28;20491;-58
2023/10/13 09:44:37;;;;;;;13.83;4.43;;;;;;;;;;5020965;28;20415;-57
2023/10/13 09:47:09;;;;;;;13.85;4.22;;;;;;;;;;5017117;28;20971;-58
2023/10/13 09:49:44;;;;;;;13.25;4.63;;;;;;;;;;5020093;28;20521;-58
2023/10/13 09:52:18;;;;;;;13.38;4.22;;;;;;;;;;5013482;28;20447;-58
2023/10/13 09:54:47;;;;;;;14.65;4.60;;;;;;;;;;5016190;28;20437;-58
2023/10/13 09:57:16;;;;;;;15.15;4.53;;;;;;;;;;5015067;28;20409;-58
2023/10/13 09:59:51;;;;;;;14.27;4.32;;;;;;;;;;5016557;28;20910;-58
2023/10/13 10:02:25;;;;;;;13.88;4.20;;;;;;;;;;5015675;28;20808;-57
2023/10/13 10:04:51;;;;;;;14.07;4.80;;;;;;;;;;5013718;28;20819;-58
2023/10/13 10:07:28;;;;;;;13.65;4.50;;;;;;;;;;5017663;28;20893;-58
2023/10/13 10:09:59;;;;;;;16.33;4.63;;;;;;;;;;5022019;28;20440;-58
2023/10/13 10:12:29;;;;;;;15.02;4.75;;;;;;;;;;5014732;28;20403;-58
2023/10/13 10:15:06;;;;;;;15.35;4.35;;;;;;;;;;5022581;28;20509;-58
2023/10/13 10:17:41;;;;;;;15.00;4.55;;;;;;;;;;5015895;28;20399;-58
2023/10/13 10:20:19;;;;;;;14.82;4.50;;;;;;;;;;5017592;28;20912;-58
2023/10/13 10:22:58;;;;;;;15.85;4.68;;;;;;;;;;5022929;28;20410;-58
2023/10/13 10:25:28;;;;;;;15.25;4.82;;;;;;;;;;5020788;28;20437;-58
2023/10/13 10:27:59;;;;;;;15.55;4.53;;;;;;;;;;5016947;28;20418;-58
2023/10/13 10:30:25;;;;;;;14.53;4.93;;;;;;;;;;5018925;28;20396;-58
2023/10/13 10:32:53;;;;;;;14.57;4.63;;;;;;;;;;5022000;28;20772;-58
2023/10/13 10:35:22;;;;;;;16.95;4.95;;;;;;;;;;5016912;28;20483;-58
2023/10/13 10:37:47;;;;;;;13.25;4.35;;;;;;;;;;5014657;28;20873;-58
2023/10/13 10:40:33;;;;;;;14.85;4.78;;;;;;;;;;5014440;28;20443;-59
2023/10/13 10:43:01;;;;;;;15.50;4.60;;;;;;;;;;5020439;28;20478;-58
2023/10/13 10:45:32;;;;;;;13.88;4.60;;;;;;;;;;5017106;28;20411;-58
2023/10/13 10:47:58;;;;;;;12.47;4.63;;;;;;;;;;5018628;28;20499;-58
2023/10/13 10:50:31;;;;;;;15.88;5.40;;;;;;;;;;5020339;28;20429;-58
2023/10/13 10:52:57;;;;;;;14.68;4.90;;;;;;;;;;5019140;28;20505;-58
2023/10/13 10:55:27;;;;;;;13.50;4.60;;;;;;;;;;5015488;28;20969;-58
2023/10/13 10:58:01;;;;;;;13.90;4.75;;;;;;;;;;5023046;28;20412;-59
2023/10/13 11:00:37;;;;;;;14.07;5.10;;;;;;;;;;5018364;28;20391;-57
2023/10/13 11:03:04;;;;;;;15.35;5.00;;;;;;;;;;5020939;28;20488;-58
2023/10/13 11:05:32;;;;;;;15.55;5.55;;;;;;;;;;5018336;28;20403;-58
2023/10/13 11:07:57;;;;;;;14.20;5.00;;;;;;;;;;5022094;28;20451;-58
2023/10/13 11:10:31;;;;;;;13.83;4.70;;;;;;;;;;5014548;28;20401;-58
2023/10/13 11:13:11;;;;;;;16.17;5.05;;;;;;;;;;5016012;28;20403;-58
2023/10/13 11:15:44;;;;;;;16.35;4.78;;;;;;;;;;5013942;28;20414;-58
2023/10/13 11:18:13;;;;;;;18.50;4.97;;;;;;;;;;5020327;28;20764;-58
2023/10/13 11:20:44;;;;;;;15.23;5.00;;;;;;;;;;5022612;28;20395;-58
2023/10/13 11:23:11;;;;;;;17.13;5.28;;;;;;;;;;5015242;28;20500;-58
2023/10/13 11:25:37;;;;;;;14.23;5.60;;;;;;;;;;5016566;28;20934;-58
2023/10/13 11:28:10;;;;;;;14.43;5.03;;;;;;;;;;5022148;28;20415;-58
2023/10/13 11:33:05;;;;;;;15.80;4.82;;;;;;;;;;5015066;28;20419;-58
2023/10/13 11:35:48;;;;;;;19.20;5.05;;;;;;;;;;5013062;28;20413;-58
2023/10/13 11:38:15;;;;;;;13.15;4.50;;;;;;;;;;5013738;28;20389;-58
2023/10/13 11:43:24;;;;;;;12.27;5.00;;;;;;;;;;5016477;28;20521;-58
2023/10/13 11:45:56;;;;;;;16.75;4.93;;;;;;;;;;5011305;28;20407;-58
2023/10/13 11:48:34;;;;;;;18.20;5.30;;;;;;;;;;5013499;28;20888;-58
2023/10/13 11:50:59;;;;;;;16.40;5.40;;;;;;;;;;5017038;28;20817;-58
2023/10/13 11:53:27;;;;;;;13.67;4.83;;;;;;;;;;5019580;28;20395;-58
2023/10/13 11:55:52;;;;;;;20.45;5.85;;;;;;;;;;5013888;28;20415;-58
2023/10/13 11:58:18;;;;;;;16.02;5.28;;;;;;;;;;5015095;28;20469;-58
2023/10/13 12:00:51;;;;;;;18.87;5.30;;;;;;;;;;5017384;28;20423;-58
2023/10/13 12:06:19;;;;;;;17.25;5.70;;;;;;;;;;5020841;28;20424;-60
2023/10/13 12:08:49;;;;;;;17.85;5.55;;;;;;;;;;5017564;28;20394;-58
2023/10/13 12:11:30;;;;;;;16.48;4.93;;;;;;;;;;5014879;28;20470;-58
2023/10/13 12:13:55;;;;;;;18.77;5.25;;;;;;;;;;5020812;28;20500;-58
2023/10/13 12:16:21;;;;;;;17.47;5.07;;;;;;;;;;5013054;28;20399;-58
2023/10/13 12:18:53;;;;;;;15.32;5.05;;;;;;;;;;5013924;28;20420;-58
2023/10/13 12:21:21;;;;;;;17.70;5.00;;;;;;;;;;5012585;28;20424;-59
2023/10/13 12:23:46;;;;;;;16.55;5.45;;;;;;;;;;5017977;28;20473;-58
2023/10/13 12:26:19;;;;;;;15.07;5.40;;;;;;;;;;5011959;28;20428;-58
2023/10/13 12:28:51;;;;;;;15.50;4.85;;;;;;;;;;5013336;28;20894;-58
2023/10/13 12:31:17;;;;;;;18.98;5.55;;;;;;;;;;5016035;28;20919;-58
2023/10/13 12:33:43;;;;;;;16.33;5.40;;;;;;;;;;5020806;28;20424;-58
2023/10/13 12:36:11;;;;;;;18.97;5.50;;;;;;;;;;5014011;28;20416;-58
2023/10/13 12:52:15;;;;;;;17.77;5.50;;;;;;;;;;5018429;28;20459;-58
2023/10/13 12:54:46;;;;;;;15.18;5.40;;;;;;;;;;5012510;28;20785;-59
2023/10/13 12:57:11;;;;;;;19.77;5.65;;;;;;;;;;5016178;28;20435;-58
2023/10/13 12:59:38;;;;;;;20.03;5.33;;;;;;;;;;5014636;28;20531;-58
2023/10/13 13:02:07;;;;;;;17.80;5.63;;;;;;;;;;5011439;28;20463;-58
2023/10/13 13:04:36;;;;;;;16.30;5.32;;;;;;;;;;5013177;28;20408;-58
2023/10/13 13:07:01;;;;;;;18.77;5.88;;;;;;;;;;5016730;28;20442;-58
2023/10/13 13:09:27;;;;;;;18.67;5.57;;;;;;;;;;5017868;28;20492;-58
2023/10/13 13:11:57;;;;;;;15.53;5.20;;;;;;;;;;5013342;28;21060;-58
2023/10/13 13:14:22;;;;;;;15.07;5.20;;;;;;;;;;5012188;28;20393;-58
2023/10/13 13:16:48;;;;;;;17.77;5.63;;;;;;;;;;5014519;28;20474;-58
2023/10/13 13:19:14;;;;;;;17.30;6.00;;;;;;;;;;5021111;28;20500;-58
2023/10/13 13:21:39;;;;;;;21.40;5.90;;;;;;;;;;5020714;28;20480;-58
2023/10/13 13:24:10;;;;;;;17.17;5.20;;;;;;;;;;5017714;28;20409;-58
2023/10/13 13:26:36;;;;;;;16.65;5.35;;;;;;;;;;5021646;28;21324;-57
2023/10/13 13:29:01;;;;;;;16.38;4.93;;;;;;;;;;5015634;28;20509;-58
2023/10/13 13:31:29;;;;;;;15.23;4.90;;;;;;;;;;5019668;28;20405;-58
2023/10/13 13:33:54;;;;;;;20.10;5.47;;;;;;;;;;5004237;28;20417;-58
2023/10/13 13:36:22;;;;;;;15.07;5.10;;;;;;;;;;5008756;28;20398;-57
2023/10/13 13:38:49;;;;;;;20.45;5.40;;;;;;;;;;5002458;28;20401;-57
2023/10/13 13:41:16;;;;;;;14.88;4.82;;;;;;;;;;5006976;28;20415;-58
2023/10/13 13:43:50;;;;;;;17.37;4.90;;;;;;;;;;5008348;28;20911;-58
2023/10/13 13:46:16;;;;;;;17.00;5.40;;;;;;;;;;5008095;28;20534;-58
2023/10/13 13:48:42;;;;;;;17.58;5.38;;;;;;;;;;5008734;28;20409;-58
2023/10/13 13:51:14;;;;;;;18.17;5.57;;;;;;;;;;5010227;28;20450;-58
2023/10/13 13:53:44;;;;;;;15.50;4.70;;;;;;;;;;5297352;22;20496;-58
2023/10/13 13:56:10;;;;;;;17.60;5.17;;;;;;;;;;5005939;28;20399;-58
2023/10/13 13:58:38;;;;;;;13.50;4.53;;;;;;;;;;5010306;28;20402;-58
2023/10/13 14:01:13;;;;;;;16.10;4.68;;;;;;;;;;5011823;28;20905;-57
2023/10/13 14:03:45;;;;;;;15.33;4.57;;;;;;;;;;5018588;28;20403;-58
2023/10/13 14:06:16;;;;;;;15.38;5.30;;;;;;;;;;5020286;28;20415;-58
2023/10/13 14:08:44;;;;;;;16.75;5.07;;;;;;;;;;5015574;28;20455;-58
2023/10/13 14:13:55;;;;;;;14.82;4.55;;;;;;;;;;5020704;28;20984;-58
2023/10/13 14:16:22;;;;;;;17.33;4.75;;;;;;;;;;5017984;28;20391;-58
2023/10/13 14:18:48;;;;;;;14.95;4.72;;;;;;;;;;5013043;28;20409;-58
2023/10/13 14:21:24;;;;;;;16.10;4.65;;;;;;;;;;5011719;28;20419;-58
2023/10/13 14:23:51;;;;;;;17.42;4.60;;;;;;;;;;5014853;28;20407;-58
2023/10/13 14:26:21;;;;;;;17.92;4.50;;;;;;;;;;5022137;28;20407;-57
2023/10/13 14:28:51;;;;;;;16.67;4.30;;;;;;;;;;5015981;28;20414;-58
2023/10/13 14:31:18;;;;;;;13.98;4.00;;;;;;;;;;5019563;28;20415;-58
2023/10/13 14:33:44;;;;;;;16.20;4.50;;;;;;;;;;5020899;28;20442;-57
2023/10/13 14:36:10;;;;;;;15.07;4.75;;;;;;;;;;5016550;28;20512;-58
2023/10/13 14:38:35;;;;;;;16.60;5.10;;;;;;;;;;5017817;28;20439;-58
2023/10/13 14:41:00;;;;;;;16.57;4.87;;;;;;;;;;5013356;28;20508;-58
2023/10/13 14:43:27;;;;;;;19.57;4.83;;;;;;;;;;5010545;28;20486;-58
2023/10/13 14:45:53;;;;;;;16.35;3.97;;;;;;;;;;5008928;28;20862;-58
2023/10/13 14:48:18;;;;;;;16.83;4.40;;;;;;;;;;5015034;28;20403;-58
2023/10/13 14:50:45;;;;;;;12.63;4.30;;;;;;;;;;5019434;28;20756;-58
2023/10/13 14:53:10;;;;;;;17.40;4.22;;;;;;;;;;5015772;28;20411;-58
2023/10/13 14:55:41;;;;;;;14.23;4.85;;;;;;;;;;5019455;28;20484;-58
2023/10/13 14:58:07;;;;;;;15.07;5.22;;;;;;;;;;5018674;28;20460;-58
2023/10/13 15:00:34;;;;;;;14.45;4.70;;;;;;;;;;5018730;28;20505;-58
2023/10/13 15:03:01;;;;;;;15.77;4.30;;;;;;;;;;5012863;28;20397;-58
2023/10/13 15:05:29;;;;;;;17.52;5.45;;;;;;;;;;5010354;28;20414;-58
2023/10/13 15:07:55;;;;;;;15.90;6.65;;;;;;;;;;5012020;28;20403;-58
2023/10/13 15:10:21;;;;;;;22.70;8.80;;;;;;;;;;5008430;28;21044;-58
2023/10/13 15:12:46;;;;;;;18.33;8.63;;;;;;;;;;5019105;28;20785;-58
2023/10/13 15:15:19;;;;;;;17.63;6.77;;;;;;;;;;5019093;28;20515;-58
2023/10/13 15:17:44;;;;;;;14.15;4.70;;;;;;;;;;5016570;28;20769;-58
2023/10/13 15:20:11;;;;;;;13.63;5.20;;;;;;;;;;5013814;28;21011;-58
2023/10/13 15:22:37;;;;;;;13.30;5.13;;;;;;;;;;5019748;28;20407;-58
2023/10/13 15:25:20;;;;;;;15.27;4.45;;;;;;;;;;5017590;28;20484;-58
2023/10/13 15:27:50;;;;;;;14.10;4.90;;;;;;;;;;5007335;28;20668;-58
2023/10/13 15:30:23;;;;;;;15.73;4.97;;;;;;;;;;5010211;28;20458;-58
2023/10/13 15:32:49;;;;;;;18.23;5.10;;;;;;;;;;5012418;28;20517;-58
2023/10/13 15:35:15;;;;;;;12.50;4.55;;;;;;;;;;5015668;28;20498;-59
2023/10/13 15:37:41;;;;;;;13.60;4.45;;;;;;;;;;5015577;28;20504;-58
2023/10/13 15:40:15;;;;;;;15.32;4.93;;;;;;;;;;5017693;28;20798;-59
2023/10/13 15:42:41;;;;;;;13.75;4.20;;;;;;;;;;5019321;28;20399;-58
2023/10/13 15:45:16;;;;;;;14.55;4.57;;;;;;;;;;5015756;28;20430;-59
2023/10/13 15:47:45;;;;;;;15.40;4.60;;;;;;;;;;5016063;28;20453;-59
2023/10/13 15:50:15;;;;;;;17.03;5.00;;;;;;;;;;5011089;28;20583;-59
2023/10/13 15:52:45;;;;;;;16.50;4.50;;;;;;;;;;5011207;28;20457;-59
2023/10/13 15:55:13;;;;;;;14.77;5.22;;;;;;;;;;5007829;28;20406;-58
2023/10/13 15:57:38;;;;;;;13.95;4.72;;;;;;;;;;5017703;28;20429;-58
2023/10/13 16:00:22;;;;;;;12.07;4.30;;;;;;;;;;5017940;28;20407;-59
2023/10/13 16:02:50;;;;;;;14.23;4.55;;;;;;;;;;5017282;28;20906;-59
2023/10/13 16:05:15;;;;;;;12.47;4.60;;;;;;;;;;5015206;28;20430;-59
2023/10/13 16:07:41;;;;;;;14.40;4.70;;;;;;;;;;5017804;28;20451;-59
2023/10/13 16:10:11;;;;;;;14.05;4.88;;;;;;;;;;5018370;28;20463;-59
2023/10/13 16:12:36;;;;;;;18.25;5.20;;;;;;;;;;5008365;28;20399;-59
2023/10/13 16:15:05;;;;;;;14.15;4.95;;;;;;;;;;5008475;28;20482;-59
2023/10/13 16:17:31;;;;;;;14.38;5.00;;;;;;;;;;5012184;28;20853;-59
2023/10/13 16:19:56;;;;;;;15.63;4.72;;;;;;;;;;5015850;28;20415;-59
2023/10/13 16:22:22;;;;;;;11.17;4.63;;;;;;;;;;5014494;28;20391;-59
2023/10/13 16:24:47;;;;;;;15.90;4.73;;;;;;;;;;5017626;28;20412;-59
2023/10/13 16:27:14;;;;;;;13.97;4.50;;;;;;;;;;5017579;28;20422;-59
2023/10/13 16:29:42;;;;;;;14.40;4.90;;;;;;;;;;5013538;28;21135;-59
2023/10/13 16:32:08;;;;;;;13.30;5.07;;;;;;;;;;5018554;28;20416;-60
2023/10/13 16:34:34;;;;;;;16.88;5.20;;;;;;;;;;5013667;28;20937;-60
2023/10/13 16:37:04;;;;;;;12.27;4.23;;;;;;;;;;5008574;28;20403;-59
2023/10/13 16:39:30;;;;;;;13.70;4.55;;;;;;;;;;5008318;28;20448;-59
2023/10/13 16:41:55;;;;;;;16.67;4.73;;;;;;;;;;5014081;28;20416;-59
2023/10/13 16:44:22;;;;;;;14.50;4.97;;;;;;;;;;5017593;28;20402;-60
2023/10/13 16:46:48;;;;;;;14.13;5.10;;;;;;;;;;5013440;28;21582;-59
2023/10/13 16:49:14;;;;;;;12.30;4.83;;;;;;;;;;5017595;28;20405;-59
2023/10/13 16:51:40;;;;;;;16.88;5.22;;;;;;;;;;5018283;28;20387;-59
2023/10/13 16:54:07;;;;;;;16.10;5.40;;;;;;;;;;5018205;28;20423;-59
2023/10/13 16:56:35;;;;;;;22.33;11.50;;;;;;;;;;5018581;28;20545;-59
2023/10/13 16:59:04;;;;;;;15.35;5.38;;;;;;;;;;5013791;28;20506;-59
2023/10/13 17:01:30;;;;;;;15.30;5.28;;;;;;;;;;5014081;28;20433;-59
2023/10/13 17:03:56;;;;;;;13.55;4.82;;;;;;;;;;5012766;28;20847;-59
2023/10/13 17:06:23;;;;;;;15.07;5.10;;;;;;;;;;5021868;28;20406;-59
2023/10/13 17:08:48;;;;;;;14.35;4.57;;;;;;;;;;5022472;28;20476;-59
2023/10/13 17:11:15;;;;;;;17.77;5.17;;;;;;;;;;5017317;28;20415;-59
2023/10/13 17:13:42;;;;;;;14.83;5.00;;;;;;;;;;5020972;28;20411;-59
2023/10/13 17:16:11;;;;;;;13.67;4.50;;;;;;;;;;5021393;28;20418;-59
2023/10/13 17:18:37;;;;;;;14.43;4.50;;;;;;;;;;5020142;28;20407;-59
2023/10/13 17:21:06;;;;;;;10.87;4.57;;;;;;;;;;5010531;28;21089;-59
2023/10/13 17:23:34;;;;;;;11.98;4.95;;;;;;;;;;5013320;28;20921;-59
2023/10/13 17:25:59;;;;;;;13.90;4.72;;;;;;;;;;5015053;28;20411;-59
2023/10/13 17:28:25;;;;;;;13.85;5.40;;;;;;;;;;5016915;28;20415;-60
2023/10/13 17:30:50;;;;;;;16.40;5.38;;;;;;;;;;5020315;28;20409;-61